Time;durP1;ratioP1;P1;durP2;ratioP2;P2;SDS_P1;SDS_P2;PMS_P1;PMS_P2;Temp;Humidity;BMP_temperature;BMP_pressure;BME280_temperature;BME280_humidity;BME280_pressure;Samples;Min_cycle;Max_cycle;Signal;HPM_P1;HPM_P2
2023/10/19 00:00:57;;;;;;;0.70;0.70;;;;;;;;;;5000334;28;20189;-83
2023/10/19 00:03:24;;;;;;;0.60;0.60;;;;;;;;;;5016305;23;20172;-84
2023/10/19 00:05:50;;;;;;;0.50;0.50;;;;;;;;;;5015946;28;20294;-83
2023/10/19 00:08:20;;;;;;;0.60;0.60;;;;;;;;;;5017634;28;20176;-83
2023/10/19 00:10:49;;;;;;;0.60;0.60;;;;;;;;;;5015314;28;20243;-85
2023/10/19 00:13:18;;;;;;;0.50;0.50;;;;;;;;;;5016852;28;20299;-85
2023/10/19 00:15:51;;;;;;;0.73;0.73;;;;;;;;;;5016036;28;20200;-84
2023/10/19 00:23:13;;;;;;;0.70;0.70;;;;;;;;;;5018043;28;20522;-84
2023/10/19 00:25:44;;;;;;;0.60;0.60;;;;;;;;;;5016145;28;20231;-85
2023/10/19 00:28:12;;;;;;;0.50;0.50;;;;;;;;;;5016952;28;20251;-84
2023/10/19 00:30:42;;;;;;;0.60;0.60;;;;;;;;;;5016855;28;20184;-82
2023/10/19 00:33:16;;;;;;;0.67;0.67;;;;;;;;;;5017063;28;20258;-83
2023/10/19 00:35:46;;;;;;;0.60;0.60;;;;;;;;;;5016215;28;20211;-83
2023/10/19 00:38:27;;;;;;;0.60;0.60;;;;;;;;;;5018675;28;20176;-84
2023/10/19 00:41:06;;;;;;;0.70;0.70;;;;;;;;;;5015326;28;20176;-83
2023/10/19 00:43:34;;;;;;;0.70;0.70;;;;;;;;;;5016273;28;20168;-85
2023/10/19 00:46:06;;;;;;;0.63;0.63;;;;;;;;;;5015903;28;20215;-85
2023/10/19 00:48:33;;;;;;;0.60;0.60;;;;;;;;;;5015675;28;20802;-84
2023/10/19 00:51:26;;;;;;;0.70;0.70;;;;;;;;;;5014577;28;20688;-85
2023/10/19 00:53:54;;;;;;;0.70;0.70;;;;;;;;;;5014549;28;20215;-85
2023/10/19 00:56:20;;;;;;;0.60;0.60;;;;;;;;;;5015402;28;20211;-85
2023/10/19 00:58:53;;;;;;;0.50;0.50;;;;;;;;;;5014684;28;20177;-85
2023/10/19 01:01:24;;;;;;;0.60;0.60;;;;;;;;;;5016476;28;20195;-83
2023/10/19 01:03:55;;;;;;;0.60;0.60;;;;;;;;;;5016061;28;20696;-85
2023/10/19 01:06:22;;;;;;;0.50;0.50;;;;;;;;;;5015729;28;20208;-85
2023/10/19 01:08:50;;;;;;;0.60;0.60;;;;;;;;;;5017380;28;20196;-84
2023/10/19 01:11:19;;;;;;;0.60;0.60;;;;;;;;;;5022773;28;20173;-83
2023/10/19 01:13:46;;;;;;;0.60;0.60;;;;;;;;;;5027110;28;20212;-84
2023/10/19 01:16:20;;;;;;;0.60;0.60;;;;;;;;;;5029191;28;20196;-86
2023/10/19 01:18:46;;;;;;;0.60;0.60;;;;;;;;;;5015756;28;20181;-84
2023/10/19 01:21:12;;;;;;;0.60;0.60;;;;;;;;;;5015047;28;20263;-83
2023/10/19 01:23:38;;;;;;;0.67;0.67;;;;;;;;;;5015003;28;20177;-84
2023/10/19 01:26:08;;;;;;;0.50;0.50;;;;;;;;;;5013019;28;20295;-84
2023/10/19 01:31:07;;;;;;;0.60;0.60;;;;;;;;;;5014910;28;20187;-85
2023/10/19 01:33:36;;;;;;;0.60;0.60;;;;;;;;;;5014589;28;20216;-84
2023/10/19 01:36:11;;;;;;;0.70;0.70;;;;;;;;;;5012180;28;20200;-85
2023/10/19 01:38:37;;;;;;;0.57;0.57;;;;;;;;;;5013793;28;20168;-85
2023/10/19 01:41:18;;;;;;;0.50;0.50;;;;;;;;;;5019300;28;20157;-84
2023/10/19 01:43:44;;;;;;;0.50;0.50;;;;;;;;;;5038661;28;20187;-83
2023/10/19 01:46:11;;;;;;;0.50;0.50;;;;;;;;;;5037220;28;20180;-84
2023/10/19 01:48:40;;;;;;;0.50;0.50;;;;;;;;;;5017574;28;20188;-86
2023/10/19 01:51:07;;;;;;;0.50;0.50;;;;;;;;;;5014975;28;20192;-86
2023/10/19 01:53:35;;;;;;;0.50;0.50;;;;;;;;;;5011871;28;20216;-86
2023/10/19 01:56:01;;;;;;;0.50;0.50;;;;;;;;;;5013765;28;20282;-85
2023/10/19 01:58:29;;;;;;;0.50;0.50;;;;;;;;;;5014253;28;20200;-85
2023/10/19 02:01:00;;;;;;;0.50;0.50;;;;;;;;;;5014181;28;20179;-85
2023/10/19 02:03:28;;;;;;;0.57;0.57;;;;;;;;;;5012955;28;20222;-85
2023/10/19 02:06:09;;;;;;;0.50;0.50;;;;;;;;;;5012177;28;20227;-85
2023/10/19 02:08:38;;;;;;;0.50;0.50;;;;;;;;;;4996857;28;20183;-85
2023/10/19 02:11:09;;;;;;;0.53;0.53;;;;;;;;;;5013275;28;20180;-85
2023/10/19 02:13:35;;;;;;;0.50;0.50;;;;;;;;;;5011834;28;20216;-86
2023/10/19 02:16:01;;;;;;;0.50;0.50;;;;;;;;;;5011247;28;20199;-85
2023/10/19 02:18:27;;;;;;;0.50;0.50;;;;;;;;;;5013885;28;20181;-86
2023/10/19 02:20:53;;;;;;;0.50;0.50;;;;;;;;;;5013519;28;20184;-85
2023/10/19 02:23:19;;;;;;;0.50;0.50;;;;;;;;;;5011740;28;20241;-86
2023/10/19 02:25:46;;;;;;;0.50;0.50;;;;;;;;;;5012117;28;20200;-86
2023/10/19 02:28:12;;;;;;;0.50;0.50;;;;;;;;;;5019853;28;20172;-85
2023/10/19 02:30:40;;;;;;;0.40;0.40;;;;;;;;;;5020626;28;20529;-85
2023/10/19 02:33:07;;;;;;;0.40;0.40;;;;;;;;;;5015735;28;20240;-86
2023/10/19 02:35:35;;;;;;;0.50;0.50;;;;;;;;;;5012558;28;20200;-85
2023/10/19 02:38:01;;;;;;;0.50;0.50;;;;;;;;;;5013669;28;20653;-86
2023/10/19 02:40:31;;;;;;;0.53;0.53;;;;;;;;;;5012378;28;20177;-85
2023/10/19 02:42:56;;;;;;;0.50;0.50;;;;;;;;;;5012097;28;20172;-86
2023/10/19 02:45:23;;;;;;;0.60;0.60;;;;;;;;;;5011036;28;20197;-85
2023/10/19 02:47:50;;;;;;;0.40;0.40;;;;;;;;;;5012480;28;20565;-85
2023/10/19 02:50:22;;;;;;;0.50;0.50;;;;;;;;;;5012490;28;20177;-85
2023/10/19 02:52:48;;;;;;;0.50;0.50;;;;;;;;;;5011464;28;20568;-85
2023/10/19 02:55:18;;;;;;;0.50;0.50;;;;;;;;;;5012059;28;20197;-85
2023/10/19 02:57:46;;;;;;;0.50;0.50;;;;;;;;;;5011378;28;20172;-84
2023/10/19 03:00:19;;;;;;;0.53;0.53;;;;;;;;;;5012773;28;20173;-85
2023/10/19 03:02:45;;;;;;;0.50;0.50;;;;;;;;;;5012911;28;20156;-85
2023/10/19 03:05:14;;;;;;;0.47;0.47;;;;;;;;;;4973395;28;1128788;-85
2023/10/19 03:07:43;;;;;;;0.50;0.50;;;;;;;;;;5013507;28;20638;-85
2023/10/19 03:11:03;;;;;;;0.60;0.60;;;;;;;;;;5013361;28;20231;-85
2023/10/19 03:12:57;;;;;;;0.50;0.50;;;;;;;;;;5012868;28;20612;-85
2023/10/19 03:15:23;;;;;;;0.50;0.50;;;;;;;;;;5011880;28;20188;-86
2023/10/19 03:17:49;;;;;;;0.50;0.50;;;;;;;;;;5012189;28;20187;-85
2023/10/19 03:20:17;;;;;;;0.50;0.50;;;;;;;;;;5013832;28;20545;-85
2023/10/19 03:22:46;;;;;;;0.50;0.50;;;;;;;;;;5014418;28;20184;-85
2023/10/19 03:27:56;;;;;;;0.50;0.50;;;;;;;;;;5015490;28;20268;-85
2023/10/19 03:30:25;;;;;;;0.53;0.53;;;;;;;;;;5021104;28;20165;-81
2023/10/19 03:32:51;;;;;;;0.50;0.50;;;;;;;;;;5036886;28;20220;-83
2023/10/19 03:35:17;;;;;;;0.50;0.50;;;;;;;;;;5036521;28;20212;-85
2023/10/19 03:37:47;;;;;;;0.60;0.60;;;;;;;;;;5037220;28;20187;-82
2023/10/19 03:40:16;;;;;;;0.63;0.63;;;;;;;;;;5019712;28;20692;-85
2023/10/19 03:42:44;;;;;;;0.53;0.53;;;;;;;;;;5015695;28;20199;-85
2023/10/19 03:45:13;;;;;;;0.40;0.40;;;;;;;;;;5029807;28;20177;-84
2023/10/19 03:47:39;;;;;;;0.50;0.50;;;;;;;;;;5036278;28;20164;-83
2023/10/19 03:50:06;;;;;;;0.80;0.80;;;;;;;;;;5025521;28;20184;-84
2023/10/19 03:52:33;;;;;;;0.70;0.70;;;;;;;;;;5016251;28;20658;-83
2023/10/19 03:54:59;;;;;;;0.53;0.53;;;;;;;;;;5014787;28;20578;-84
2023/10/19 03:57:29;;;;;;;0.60;0.60;;;;;;;;;;5014863;28;20259;-84
2023/10/19 03:59:57;;;;;;;0.60;0.60;;;;;;;;;;5013176;28;20173;-84
2023/10/19 04:02:35;;;;;;;0.50;0.50;;;;;;;;;;5013146;28;20176;-84
2023/10/19 04:05:02;;;;;;;0.60;0.60;;;;;;;;;;5011129;28;20216;-83
2023/10/19 04:07:31;;;;;;;0.57;0.57;;;;;;;;;;5012966;28;20227;-82
2023/10/19 04:12:35;;;;;;;0.60;0.60;;;;;;;;;;5015266;28;20222;-85
2023/10/19 04:15:12;;;;;;;0.60;0.60;;;;;;;;;;5014286;28;20211;-83
2023/10/19 04:17:42;;;;;;;0.57;0.57;;;;;;;;;;5016311;28;20215;-84
2023/10/19 04:23:06;;;;;;;0.60;0.60;;;;;;;;;;5018234;28;20268;-83
2023/10/19 04:25:32;;;;;;;0.60;0.60;;;;;;;;;;5018087;28;20200;-83
2023/10/19 04:27:59;;;;;;;0.50;0.50;;;;;;;;;;5018946;28;20173;-83
2023/10/19 04:30:26;;;;;;;0.60;0.60;;;;;;;;;;5018797;28;20657;-83
2023/10/19 04:32:52;;;;;;;0.60;0.60;;;;;;;;;;5016898;28;20209;-83
2023/10/19 04:35:22;;;;;;;0.53;0.53;;;;;;;;;;5017701;28;20181;-84
2023/10/19 04:37:50;;;;;;;0.50;0.50;;;;;;;;;;5017591;28;20248;-83
2023/10/19 04:40:16;;;;;;;0.60;0.60;;;;;;;;;;5015404;28;20176;-83
2023/10/19 04:42:42;;;;;;;0.60;0.60;;;;;;;;;;5016762;28;20184;-84
2023/10/19 04:45:11;;;;;;;0.60;0.60;;;;;;;;;;5016381;28;20192;-85
2023/10/19 04:47:37;;;;;;;0.60;0.60;;;;;;;;;;5018762;28;20169;-84
2023/10/19 04:50:04;;;;;;;0.60;0.60;;;;;;;;;;5018281;28;20226;-83
2023/10/19 04:52:30;;;;;;;0.60;0.60;;;;;;;;;;5023949;28;20188;-83
2023/10/19 04:54:56;;;;;;;0.50;0.50;;;;;;;;;;5020214;28;20203;-84
2023/10/19 04:57:22;;;;;;;0.60;0.60;;;;;;;;;;5017233;28;20189;-83
2023/10/19 04:59:48;;;;;;;0.50;0.50;;;;;;;;;;5016136;28;20181;-84
2023/10/19 05:02:14;;;;;;;0.50;0.50;;;;;;;;;;5017177;28;20271;-84
2023/10/19 05:04:43;;;;;;;0.50;0.50;;;;;;;;;;5017360;28;20200;-84
2023/10/19 05:07:12;;;;;;;0.63;0.63;;;;;;;;;;5016674;28;20195;-83
2023/10/19 05:09:39;;;;;;;0.60;0.60;;;;;;;;;;5015595;28;20212;-85
2023/10/19 05:12:09;;;;;;;0.60;0.60;;;;;;;;;;5014379;28;20200;-85
2023/10/19 05:14:35;;;;;;;0.50;0.50;;;;;;;;;;5015190;28;20681;-84
2023/10/19 05:17:04;;;;;;;0.50;0.50;;;;;;;;;;5016031;28;20657;-86
2023/10/19 05:19:30;;;;;;;0.53;0.53;;;;;;;;;;5016789;28;20642;-84
2023/10/19 05:21:56;;;;;;;0.50;0.50;;;;;;;;;;5019231;28;20173;-85
2023/10/19 05:24:22;;;;;;;0.60;0.60;;;;;;;;;;5019170;28;20176;-84
2023/10/19 05:26:49;;;;;;;0.60;0.60;;;;;;;;;;5002709;28;20205;-83
2023/10/19 05:29:15;;;;;;;0.60;0.60;;;;;;;;;;5018507;28;20162;-81
2023/10/19 05:31:41;;;;;;;0.50;0.50;;;;;;;;;;5018623;28;20169;-81
2023/10/19 05:34:08;;;;;;;0.50;0.50;;;;;;;;;;5015942;28;20235;-83
2023/10/19 05:36:34;;;;;;;0.53;0.53;;;;;;;;;;4996232;28;20709;-84
2023/10/19 05:39:00;;;;;;;0.60;0.60;;;;;;;;;;4996802;28;20180;-84
2023/10/19 05:41:26;;;;;;;0.60;0.60;;;;;;;;;;4996509;28;20252;-83
2023/10/19 05:43:53;;;;;;;0.50;0.50;;;;;;;;;;4995900;28;20190;-85
2023/10/19 05:46:21;;;;;;;0.60;0.60;;;;;;;;;;4997862;28;20204;-85
2023/10/19 05:48:49;;;;;;;0.60;0.60;;;;;;;;;;4995703;28;20184;-84
2023/10/19 05:51:17;;;;;;;0.60;0.60;;;;;;;;;;4995041;28;20226;-84
2023/10/19 05:53:44;;;;;;;0.50;0.50;;;;;;;;;;4996240;28;20228;-84
2023/10/19 05:56:10;;;;;;;0.60;0.60;;;;;;;;;;4993629;28;20589;-84
2023/10/19 05:58:36;;;;;;;0.70;0.70;;;;;;;;;;4996229;28;20197;-85
2023/10/19 06:01:02;;;;;;;0.63;0.63;;;;;;;;;;4996874;28;20529;-84
2023/10/19 06:03:29;;;;;;;0.50;0.50;;;;;;;;;;4996256;28;20232;-84
2023/10/19 06:05:56;;;;;;;0.60;0.60;;;;;;;;;;4996186;28;20232;-85
2023/10/19 06:08:22;;;;;;;0.70;0.70;;;;;;;;;;5001942;28;20185;-83
2023/10/19 06:10:52;;;;;;;0.60;0.60;;;;;;;;;;5006126;28;20185;-85
2023/10/19 06:13:18;;;;;;;0.50;0.50;;;;;;;;;;5001851;28;20205;-85
2023/10/19 06:15:44;;;;;;;0.60;0.60;;;;;;;;;;5005924;28;20204;-86
2023/10/19 06:18:10;;;;;;;0.60;0.60;;;;;;;;;;5005280;28;20189;-87
2023/10/19 06:20:36;;;;;;;0.50;0.50;;;;;;;;;;5014106;28;20241;-85
2023/10/19 06:23:06;;;;;;;0.50;0.50;;;;;;;;;;5013938;28;20181;-85
2023/10/19 06:25:32;;;;;;;0.70;0.70;;;;;;;;;;5005859;28;20202;-86
2023/10/19 06:27:59;;;;;;;0.57;0.57;;;;;;;;;;5004535;28;20185;-85
2023/10/19 06:30:26;;;;;;;0.60;0.60;;;;;;;;;;5005025;28;20195;-86
2023/10/19 06:33:00;;;;;;;0.67;0.67;;;;;;;;;;5004831;28;20211;-86
2023/10/19 06:35:26;;;;;;;0.50;0.50;;;;;;;;;;5002431;28;20608;-85
2023/10/19 06:37:53;;;;;;;0.50;0.50;;;;;;;;;;5005072;28;20220;-84
2023/10/19 06:40:20;;;;;;;0.40;0.40;;;;;;;;;;5001583;28;20219;-85
2023/10/19 06:42:46;;;;;;;0.60;0.60;;;;;;;;;;5001735;28;20192;-85
2023/10/19 06:45:13;;;;;;;0.50;0.50;;;;;;;;;;5003742;28;20201;-85
2023/10/19 06:47:40;;;;;;;0.50;0.50;;;;;;;;;;5006263;28;20205;-86
2023/10/19 06:50:10;;;;;;;0.50;0.50;;;;;;;;;;5006434;28;20552;-84
2023/10/19 06:52:36;;;;;;;0.60;0.60;;;;;;;;;;5003000;28;20635;-86
2023/10/19 06:58:07;;;;;;;0.60;0.60;;;;;;;;;;4986978;28;20192;-85
2023/10/19 07:00:34;;;;;;;0.50;0.50;;;;;;;;;;5005578;28;20173;-83
2023/10/19 07:03:01;;;;;;;0.50;0.50;;;;;;;;;;4998062;28;20174;-83
2023/10/19 07:05:29;;;;;;;0.50;0.50;;;;;;;;;;4994650;28;20209;-84
2023/10/19 07:07:56;;;;;;;0.50;0.50;;;;;;;;;;4994970;28;20173;-84
2023/10/19 07:10:23;;;;;;;0.60;0.60;;;;;;;;;;5002441;28;20203;-83
2023/10/19 07:12:51;;;;;;;0.40;0.40;;;;;;;;;;4999589;28;20211;-83
2023/10/19 07:15:21;;;;;;;0.50;0.50;;;;;;;;;;4994724;28;20192;-85
2023/10/19 07:17:47;;;;;;;0.60;0.60;;;;;;;;;;4996732;28;20184;-85
2023/10/19 07:20:28;;;;;;;0.53;0.53;;;;;;;;;;4995036;28;20241;-86
2023/10/19 07:22:55;;;;;;;0.60;0.60;;;;;;;;;;4998995;28;20185;-85
2023/10/19 07:25:22;;;;;;;0.50;0.50;;;;;;;;;;5014920;28;20204;-82
2023/10/19 07:27:49;;;;;;;0.50;0.50;;;;;;;;;;5017438;28;20245;-82
2023/10/19 07:30:20;;;;;;;0.47;0.47;;;;;;;;;;5015996;28;20180;-84
2023/10/19 07:32:46;;;;;;;0.50;0.50;;;;;;;;;;5007153;28;20597;-85
2023/10/19 07:35:12;;;;;;;0.50;0.50;;;;;;;;;;4994912;28;20197;-86
2023/10/19 07:37:38;;;;;;;0.70;0.70;;;;;;;;;;4997132;28;20595;-85
2023/10/19 07:40:05;;;;;;;0.60;0.60;;;;;;;;;;4995834;28;20177;-85
2023/10/19 07:42:36;;;;;;;0.70;0.70;;;;;;;;;;5003534;28;20217;-82
2023/10/19 07:45:02;;;;;;;0.60;0.60;;;;;;;;;;5016783;28;20189;-83
2023/10/19 07:47:28;;;;;;;0.60;0.60;;;;;;;;;;5017209;28;20170;-82
2023/10/19 07:49:56;;;;;;;0.50;0.50;;;;;;;;;;4996362;28;20182;-85
2023/10/19 07:52:23;;;;;;;0.60;0.60;;;;;;;;;;4998907;28;20189;-85
2023/10/19 07:54:50;;;;;;;0.57;0.57;;;;;;;;;;4997748;28;20301;-85
2023/10/19 07:57:16;;;;;;;0.40;0.40;;;;;;;;;;4998473;28;20232;-85
2023/10/19 07:59:42;;;;;;;0.50;0.50;;;;;;;;;;4998925;28;20186;-86
2023/10/19 08:02:08;;;;;;;0.67;0.67;;;;;;;;;;4999004;28;20177;-85
2023/10/19 08:04:34;;;;;;;0.47;0.47;;;;;;;;;;5017900;28;20204;-81
2023/10/19 08:07:00;;;;;;;0.60;0.60;;;;;;;;;;5021556;28;20204;-83
2023/10/19 08:09:31;;;;;;;0.50;0.50;;;;;;;;;;5017984;28;20177;-85
2023/10/19 08:11:58;;;;;;;0.50;0.50;;;;;;;;;;4997518;28;20177;-85
2023/10/19 08:14:26;;;;;;;0.60;0.60;;;;;;;;;;4996582;28;20233;-85
2023/10/19 08:16:52;;;;;;;0.50;0.50;;;;;;;;;;4997603;28;20197;-83
2023/10/19 08:19:18;;;;;;;0.40;0.40;;;;;;;;;;4998238;28;20556;-86
2023/10/19 08:21:46;;;;;;;0.43;0.43;;;;;;;;;;4997455;28;20182;-84
2023/10/19 08:24:13;;;;;;;0.50;0.50;;;;;;;;;;4996281;28;20188;-83
2023/10/19 08:26:42;;;;;;;0.50;0.50;;;;;;;;;;4996618;28;20239;-85
2023/10/19 08:29:15;;;;;;;0.40;0.40;;;;;;;;;;4996811;28;20169;-85
2023/10/19 08:31:44;;;;;;;0.47;0.47;;;;;;;;;;4998207;28;20256;-85
2023/10/19 08:34:11;;;;;;;0.40;0.40;;;;;;;;;;4996794;28;20293;-84
2023/10/19 08:36:40;;;;;;;0.30;0.30;;;;;;;;;;4997314;28;20798;-83
2023/10/19 08:39:07;;;;;;;0.40;0.40;;;;;;;;;;4997330;28;20200;-83
2023/10/19 08:41:37;;;;;;;0.40;0.40;;;;;;;;;;4996721;28;20280;-86
2023/10/19 08:44:17;;;;;;;0.40;0.40;;;;;;;;;;5000949;28;20179;-83
2023/10/19 08:46:43;;;;;;;0.30;0.30;;;;;;;;;;4996878;28;20213;-83
2023/10/19 08:49:13;;;;;;;0.40;0.40;;;;;;;;;;4998051;28;20569;-84
2023/10/19 08:51:45;;;;;;;0.40;0.40;;;;;;;;;;4996758;28;20260;-83
2023/10/19 08:54:16;;;;;;;0.40;0.40;;;;;;;;;;5011560;28;20208;-84
2023/10/19 08:56:43;;;;;;;0.40;0.40;;;;;;;;;;5014733;28;20270;-84
2023/10/19 08:59:12;;;;;;;0.40;0.40;;;;;;;;;;5016290;28;20188;-84
2023/10/19 09:01:38;;;;;;;0.40;0.40;;;;;;;;;;5016518;28;20221;-85
2023/10/19 09:04:08;;;;;;;0.53;0.53;;;;;;;;;;5015007;28;20227;-85
2023/10/19 09:06:43;;;;;;;0.40;0.40;;;;;;;;;;5016085;28;20593;-86
2023/10/19 09:09:25;;;;;;;0.40;0.40;;;;;;;;;;5017372;28;20176;-86
2023/10/19 09:11:52;;;;;;;0.30;0.30;;;;;;;;;;5017656;28;20181;-83
2023/10/19 09:14:43;;;;;;;0.40;0.40;;;;;;;;;;5016622;28;20608;-82
2023/10/19 09:17:10;;;;;;;0.30;0.30;;;;;;;;;;5038757;28;20172;-81
2023/10/19 09:19:40;;;;;;;0.30;0.30;;;;;;;;;;5036524;28;20192;-83
2023/10/19 09:22:18;;;;;;;0.30;0.30;;;;;;;;;;5017565;28;20591;-83
2023/10/19 09:24:49;;;;;;;0.40;0.40;;;;;;;;;;5009054;28;20176;-84
2023/10/19 09:27:17;;;;;;;0.40;0.40;;;;;;;;;;5015136;28;20814;-82
2023/10/19 09:29:43;;;;;;;0.33;0.33;;;;;;;;;;5016198;28;20256;-85
2023/10/19 09:32:11;;;;;;;0.40;0.40;;;;;;;;;;5019000;28;20176;-83
2023/10/19 09:34:37;;;;;;;0.37;0.37;;;;;;;;;;5016370;28;20284;-83
2023/10/19 09:37:04;;;;;;;0.30;0.30;;;;;;;;;;5016392;28;20254;-83
2023/10/19 09:39:34;;;;;;;0.40;0.40;;;;;;;;;;5016878;28;20254;-83
2023/10/19 09:42:05;;;;;;;0.40;0.40;;;;;;;;;;5016819;28;20247;-82
2023/10/19 09:44:31;;;;;;;0.50;0.50;;;;;;;;;;5015357;28;20231;-82
2023/10/19 09:46:59;;;;;;;0.40;0.40;;;;;;;;;;5015891;28;20259;-83
2023/10/19 09:49:25;;;;;;;0.40;0.40;;;;;;;;;;5013957;28;20184;-84
2023/10/19 09:51:52;;;;;;;0.40;0.40;;;;;;;;;;5015362;28;20184;-84
2023/10/19 09:54:21;;;;;;;0.40;0.40;;;;;;;;;;5014941;28;20208;-85
2023/10/19 09:56:51;;;;;;;0.40;0.40;;;;;;;;;;5010065;28;20193;-84
2023/10/19 09:59:30;;;;;;;0.30;0.30;;;;;;;;;;5015726;28;20184;-84
2023/10/19 10:02:07;;;;;;;0.40;0.40;;;;;;;;;;5015466;28;20203;-83
2023/10/19 10:04:37;;;;;;;0.50;0.50;;;;;;;;;;5014984;28;20578;-84
2023/10/19 10:07:06;;;;;;;0.40;0.40;;;;;;;;;;5015229;28;20216;-84
2023/10/19 10:09:34;;;;;;;0.40;0.40;;;;;;;;;;5015557;28;20180;-84
2023/10/19 10:12:16;;;;;;;0.40;0.40;;;;;;;;;;5014334;28;20187;-84
2023/10/19 10:14:53;;;;;;;0.50;0.50;;;;;;;;;;5013590;28;20208;-84
2023/10/19 10:17:19;;;;;;;0.40;0.40;;;;;;;;;;5004407;28;20177;-83
2023/10/19 10:19:45;;;;;;;0.33;0.33;;;;;;;;;;5000609;28;20177;-84
2023/10/19 10:22:14;;;;;;;0.50;0.50;;;;;;;;;;4997394;28;20245;-84
2023/10/19 10:24:41;;;;;;;0.40;0.40;;;;;;;;;;5012590;28;20245;-82
2023/10/19 10:27:07;;;;;;;0.40;0.40;;;;;;;;;;5012503;28;20180;-83
2023/10/19 10:29:33;;;;;;;0.40;0.40;;;;;;;;;;4998324;28;20559;-83
2023/10/19 10:32:00;;;;;;;0.40;0.40;;;;;;;;;;4996876;28;20236;-83
2023/10/19 10:34:35;;;;;;;0.47;0.47;;;;;;;;;;4995678;28;20300;-84
2023/10/19 10:37:02;;;;;;;0.40;0.40;;;;;;;;;;4998106;28;20180;-83
2023/10/19 10:39:30;;;;;;;0.43;0.43;;;;;;;;;;5006816;28;20306;-82
2023/10/19 10:41:58;;;;;;;0.50;0.50;;;;;;;;;;5014270;28;20188;-82
2023/10/19 10:44:40;;;;;;;0.50;0.50;;;;;;;;;;5012673;28;20200;-81
2023/10/19 10:47:22;;;;;;;0.47;0.47;;;;;;;;;;5017349;28;20207;-81
2023/10/19 10:49:51;;;;;;;0.40;0.40;;;;;;;;;;5018037;28;20233;-83
2023/10/19 10:52:36;;;;;;;0.40;0.40;;;;;;;;;;5014723;28;20238;-86
2023/10/19 10:55:11;;;;;;;0.40;0.40;;;;;;;;;;5010171;28;20214;-84
2023/10/19 10:57:37;;;;;;;0.30;0.30;;;;;;;;;;5005818;28;20638;-86
2023/10/19 11:00:09;;;;;;;0.40;0.40;;;;;;;;;;5005064;28;20754;-83
2023/10/19 11:02:36;;;;;;;0.40;0.40;;;;;;;;;;5008046;28;20189;-84
2023/10/19 11:05:03;;;;;;;0.40;0.40;;;;;;;;;;5007804;28;20212;-85
2023/10/19 11:07:29;;;;;;;0.40;0.40;;;;;;;;;;5009144;28;20177;-84
2023/10/19 11:09:56;;;;;;;0.40;0.40;;;;;;;;;;5005988;28;20179;-83
2023/10/19 11:12:24;;;;;;;0.50;0.50;;;;;;;;;;5016387;28;20220;-85
2023/10/19 11:15:10;;;;;;;0.40;0.40;;;;;;;;;;5011686;28;20747;-85
2023/10/19 11:17:49;;;;;;;0.50;0.50;;;;;;;;;;5020179;28;20173;-86
2023/10/19 11:20:23;;;;;;;0.50;0.50;;;;;;;;;;5018200;28;20191;-85
2023/10/19 11:22:51;;;;;;;0.40;0.40;;;;;;;;;;5017754;28;20185;-86
2023/10/19 11:25:44;;;;;;;0.40;0.40;;;;;;;;;;5016781;28;20176;-86
2023/10/19 11:28:19;;;;;;;0.50;0.50;;;;;;;;;;5027646;28;20203;-85
2023/10/19 11:30:57;;;;;;;0.40;0.40;;;;;;;;;;5027549;28;20199;-83
2023/10/19 11:33:29;;;;;;;0.50;0.50;;;;;;;;;;5041048;28;20200;-84
2023/10/19 11:35:56;;;;;;;0.50;0.50;;;;;;;;;;5039675;28;20204;-85
2023/10/19 11:38:23;;;;;;;0.40;0.40;;;;;;;;;;5040229;28;20181;-86
2023/10/19 11:40:52;;;;;;;0.50;0.50;;;;;;;;;;5040287;28;20196;-86
2023/10/19 11:43:18;;;;;;;0.40;0.40;;;;;;;;;;5031955;28;20191;-86
2023/10/19 11:45:45;;;;;;;0.40;0.40;;;;;;;;;;5028996;28;20192;-87
2023/10/19 11:48:12;;;;;;;0.50;0.50;;;;;;;;;;5024005;28;20191;-85
2023/10/19 11:50:43;;;;;;;0.50;0.50;;;;;;;;;;5031915;28;20244;-86
2023/10/19 11:53:09;;;;;;;0.50;0.50;;;;;;;;;;5032646;28;20228;-85
2023/10/19 11:55:35;;;;;;;0.50;0.50;;;;;;;;;;5030830;28;20700;-85
2023/10/19 11:58:01;;;;;;;0.40;0.40;;;;;;;;;;5029827;28;20215;-84
2023/10/19 12:00:33;;;;;;;0.33;0.33;;;;;;;;;;5030276;28;20160;-82
2023/10/19 12:05:36;;;;;;;0.50;0.50;;;;;;;;;;5019225;28;20223;-81
2023/10/19 12:08:03;;;;;;;0.40;0.40;;;;;;;;;;5017400;28;20185;-84
2023/10/19 12:10:35;;;;;;;0.50;0.50;;;;;;;;;;5018447;28;20181;-83
2023/10/19 12:13:02;;;;;;;0.40;0.40;;;;;;;;;;5020917;28;20284;-81
2023/10/19 12:15:29;;;;;;;0.40;0.40;;;;;;;;;;5020710;28;20269;-81
2023/10/19 12:17:55;;;;;;;0.40;0.40;;;;;;;;;;5021288;28;20189;-81
2023/10/19 12:20:23;;;;;;;0.47;0.47;;;;;;;;;;5020499;28;20192;-81
2023/10/19 12:22:53;;;;;;;0.40;0.40;;;;;;;;;;5020833;28;20178;-86
2023/10/19 12:25:42;;;;;;;0.40;0.40;;;;;;;;;;5004634;28;20193;-87
2023/10/19 12:28:08;;;;;;;0.50;0.50;;;;;;;;;;5003188;28;20174;-84
2023/10/19 12:30:38;;;;;;;0.40;0.40;;;;;;;;;;5000582;28;20231;-85
2023/10/19 12:33:11;;;;;;;0.50;0.50;;;;;;;;;;5006388;28;20220;-86
2023/10/19 12:35:57;;;;;;;0.40;0.40;;;;;;;;;;5001747;28;20197;-87
2023/10/19 12:38:23;;;;;;;0.40;0.40;;;;;;;;;;5000307;28;20185;-85
2023/10/19 12:40:54;;;;;;;0.40;0.40;;;;;;;;;;5000363;28;20709;-86
2023/10/19 12:43:22;;;;;;;0.40;0.40;;;;;;;;;;5000203;28;20236;-88
2023/10/19 12:45:55;;;;;;;0.50;0.50;;;;;;;;;;5003316;28;20208;-87
2023/10/19 12:48:21;;;;;;;0.37;0.37;;;;;;;;;;5003295;28;20260;-88
2023/10/19 12:50:48;;;;;;;0.40;0.40;;;;;;;;;;5001287;28;20195;-87
2023/10/19 12:53:14;;;;;;;0.50;0.50;;;;;;;;;;5002090;28;20293;-87
2023/10/19 12:55:43;;;;;;;0.40;0.40;;;;;;;;;;5008792;28;20184;-87
2023/10/19 12:58:09;;;;;;;0.53;0.53;;;;;;;;;;5019869;28;20211;-83
2023/10/19 13:00:36;;;;;;;0.40;0.40;;;;;;;;;;5019534;28;20233;-81
2023/10/19 13:03:03;;;;;;;0.50;0.50;;;;;;;;;;5020183;28;20158;-83
2023/10/19 13:05:37;;;;;;;0.53;0.53;;;;;;;;;;5019267;28;20208;-80
2023/10/19 13:08:03;;;;;;;0.50;0.50;;;;;;;;;;5019357;28;20162;-82
2023/10/19 13:10:32;;;;;;;0.47;0.47;;;;;;;;;;5019785;28;20188;-81
2023/10/19 13:12:58;;;;;;;0.50;0.50;;;;;;;;;;5019032;28;20190;-81
2023/10/19 13:15:28;;;;;;;0.50;0.50;;;;;;;;;;5004050;28;20223;-85
2023/10/19 13:17:54;;;;;;;0.50;0.50;;;;;;;;;;4999442;28;20215;-87
2023/10/19 13:20:20;;;;;;;0.50;0.50;;;;;;;;;;4999186;28;20553;-86
2023/10/19 13:22:47;;;;;;;0.53;0.53;;;;;;;;;;4998924;28;20181;-86
2023/10/19 13:25:13;;;;;;;0.50;0.50;;;;;;;;;;4997754;28;20217;-85
2023/10/19 13:27:42;;;;;;;0.50;0.50;;;;;;;;;;5001327;28;20191;-83
2023/10/19 13:30:11;;;;;;;0.50;0.50;;;;;;;;;;5007885;28;20205;-87
2023/10/19 13:32:38;;;;;;;0.37;0.37;;;;;;;;;;5013675;28;20674;-84
2023/10/19 13:35:04;;;;;;;0.43;0.43;;;;;;;;;;5002947;28;20205;-85
2023/10/19 13:37:30;;;;;;;0.50;0.50;;;;;;;;;;4998139;28;20181;-85
2023/10/19 13:39:58;;;;;;;0.40;0.40;;;;;;;;;;4998572;28;20743;-85
2023/10/19 13:42:24;;;;;;;0.50;0.50;;;;;;;;;;5018252;28;20169;-83
2023/10/19 13:44:50;;;;;;;0.40;0.40;;;;;;;;;;5018669;28;20181;-83
2023/10/19 13:47:16;;;;;;;0.50;0.50;;;;;;;;;;5019141;28;20162;-85
2023/10/19 13:49:42;;;;;;;0.40;0.40;;;;;;;;;;5018551;28;20173;-83
2023/10/19 13:52:08;;;;;;;0.40;0.40;;;;;;;;;;5018939;28;20177;-89
2023/10/19 13:54:35;;;;;;;0.40;0.40;;;;;;;;;;5018272;28;20213;-88
2023/10/19 13:57:01;;;;;;;0.50;0.50;;;;;;;;;;5003197;28;20523;-86
2023/10/19 13:59:33;;;;;;;0.50;0.50;;;;;;;;;;4999254;28;20169;-85
2023/10/19 14:01:59;;;;;;;0.40;0.40;;;;;;;;;;4999939;28;20264;-86
2023/10/19 14:04:25;;;;;;;0.50;0.50;;;;;;;;;;5001492;28;20196;-86
2023/10/19 14:06:53;;;;;;;0.50;0.50;;;;;;;;;;5001185;28;20641;-88
2023/10/19 14:09:23;;;;;;;0.43;0.43;;;;;;;;;;5000850;28;20188;-90
2023/10/19 14:11:49;;;;;;;0.40;0.40;;;;;;;;;;5002990;28;20185;-85
2023/10/19 14:14:15;;;;;;;0.47;0.47;;;;;;;;;;4997490;28;20686;-88
2023/10/19 14:16:42;;;;;;;0.40;0.40;;;;;;;;;;4997796;28;20697;-86
2023/10/19 14:19:08;;;;;;;0.40;0.40;;;;;;;;;;5001765;28;20173;-86
2023/10/19 14:21:37;;;;;;;0.40;0.40;;;;;;;;;;5003829;28;20188;-84
2023/10/19 14:24:03;;;;;;;0.50;0.50;;;;;;;;;;4999416;28;20173;-88
2023/10/19 14:26:30;;;;;;;0.50;0.50;;;;;;;;;;5002516;28;20193;-84
2023/10/19 14:28:56;;;;;;;0.40;0.40;;;;;;;;;;5000443;28;20577;-87
2023/10/19 14:31:22;;;;;;;0.60;0.60;;;;;;;;;;5001922;28;20195;-85
2023/10/19 14:33:48;;;;;;;0.60;0.60;;;;;;;;;;5001327;28;20248;-86
2023/10/19 14:36:15;;;;;;;0.50;0.50;;;;;;;;;;4999921;28;20256;-84
2023/10/19 14:38:43;;;;;;;0.50;0.50;;;;;;;;;;5001580;28;20253;-86
2023/10/19 14:41:09;;;;;;;0.40;0.40;;;;;;;;;;5001740;28;20251;-86
2023/10/19 14:43:35;;;;;;;0.50;0.50;;;;;;;;;;5000387;28;20177;-87
2023/10/19 14:46:01;;;;;;;0.50;0.50;;;;;;;;;;5004455;28;20264;-86
2023/10/19 14:48:27;;;;;;;0.40;0.40;;;;;;;;;;5000552;28;20169;-85
2023/10/19 14:50:57;;;;;;;0.30;0.30;;;;;;;;;;5001053;28;20199;-83
2023/10/19 14:53:24;;;;;;;0.57;0.57;;;;;;;;;;4982773;28;20202;-87
2023/10/19 14:55:51;;;;;;;0.50;0.50;;;;;;;;;;4977292;28;20194;-87
2023/10/19 14:58:17;;;;;;;0.50;0.50;;;;;;;;;;4979601;28;20178;-85
2023/10/19 15:00:46;;;;;;;0.50;0.50;;;;;;;;;;4985754;28;20280;-86
2023/10/19 15:03:13;;;;;;;0.40;0.40;;;;;;;;;;4997204;28;20208;-88
2023/10/19 15:05:41;;;;;;;0.40;0.40;;;;;;;;;;4996197;28;20280;-86
2023/10/19 15:08:07;;;;;;;0.40;0.40;;;;;;;;;;4994875;28;20178;-82
2023/10/19 15:10:33;;;;;;;0.50;0.50;;;;;;;;;;4998074;28;20669;-85
2023/10/19 15:13:00;;;;;;;0.50;0.50;;;;;;;;;;5003739;28;20162;-88